LLBG

Ben Gurion International Airport

Tel Aviv, Israel
METAR LLBG 201820Z 30004KT 9999 FEW029 27/20 Q1012 NOSIG
Observed Flight Rules
Sep-20 @ 18:20 UTC (16 minutes ago) Visual Flight Rules
Wind Visibility Clouds
300° at 4 knots 10,000+ meters
  • Few at 2,900' AGL
Temperatures Readings
Current 27°C / 81°F
Dewpoint 20°C / 68°F
Humidity 66%
Altimeter 29.88" Hg
Pressure 1012 hPa
Elevation 49
METAR LLBG 201820Z 30004KT 9999 FEW029 27/20 Q1012 NOSIG
Observed Flight Rules
Sep-20 @ 18:20 UTC
(16 minutes ago)
VFR
Wind Visibility
300° at 4 knots 10,000+ meters
Clouds
  • Few at 2,900' AGL
Temperature Dewpoint
27°C / 81°F 20°C / 68°F
Humidity Altimeter Pressure
66% 29.88" Hg 1012 hPa